»·PEaware :: QXE515 KPDX-KSEA

QXE515 :: KPDX-KSEA

FLIGHT INFORMATION

Flight Status: Arrived
Operator:
Horizon Air
More flights by this operator :: More flights under this callsign
Pilot: Doug L. (8712)
Aircraft: DEHAVILLAND DASH 8 400
(DH8D)
More flights by this aircraft type
Origin: KPDX Portland Intl
United States
Destination: KSEA Seattle-Tacoma Intl
United States
More flights between these airports :: More routes between these airports
Route: COUGA KRIEG HAWKZ7
File this flight plan on PilotEdge
Remarks:
Altitude:
(Current/Filed)
16,000ft
Speed:
(Current/Filed)
330kts
Departed: 08-Jan-19 10:31 AM
Arrived: 08-Jan-19 11:11 AM
Distance/Time
Traveled:
112nm/0:39
Distance/Time
To Go:
Arrived

Flight Plot

Page will automatically refresh every two minutes.

Flight plan parsing failed; only flown route is shown


Map Options




Map Legend


Flown Route
Filed Route
Departure Airport
Arrival Airport
Navaid (VOR, NDB)
Fix

Horizontal Profiles

Position Reports

Time Latitude Longitude Heading Altitude Ground
Speed
08-Jan-19 10:11 45.585914 -122.591939 13 37ft 0kts
08-Jan-19 10:12 45.585914 -122.591939 13 37ft 0kts
08-Jan-19 10:13 45.585914 -122.591939 13 37ft 0kts
08-Jan-19 10:14 45.585914 -122.591939 13 37ft 0kts
08-Jan-19 10:15 45.585914 -122.591939 13 37ft 0kts
08-Jan-19 10:16 45.585914 -122.591939 13 37ft 0kts
08-Jan-19 10:17 45.585915 -122.591939 13 37ft 0kts
08-Jan-19 10:18 45.585915 -122.591939 13 37ft 0kts
08-Jan-19 10:19 45.585915 -122.591939 13 37ft 0kts
08-Jan-19 10:20 45.585915 -122.591939 13 37ft 0kts
08-Jan-19 10:21 45.585915 -122.591939 13 37ft 0kts
08-Jan-19 10:22 45.585450 -122.592068 357 37ft 2kts
08-Jan-19 10:23 45.585194 -122.591861 310 37ft 0kts
08-Jan-19 10:24 45.585194 -122.591861 310 37ft 0kts
08-Jan-19 10:25 45.585652 -122.592605 311 37ft 11kts
08-Jan-19 10:26 45.587946 -122.597590 298 37ft 17kts
08-Jan-19 10:27 45.590134 -122.603114 299 37ft 8kts
08-Jan-19 10:28 45.592658 -122.599988 45 37ft 11kts
08-Jan-19 10:29 45.594524 -122.597381 44 37ft 7kts
08-Jan-19 10:30 45.589459 -122.581973 115 229ft 123kts
08-Jan-19 10:31 45.566357 -122.535738 126 2763ft 151kts
08-Jan-19 10:32 45.542883 -122.483566 119 5816ft 150kts
08-Jan-19 10:33 45.524302 -122.432575 119 8543ft 158kts
08-Jan-19 10:34 45.551542 -122.382521 353 10767ft 228kts
08-Jan-19 10:35 45.612558 -122.404888 328 12886ft 221kts
08-Jan-19 10:36 45.671901 -122.437910 325 14700ft 224kts
08-Jan-19 10:37 45.731574 -122.471962 328 16378ft 231kts
08-Jan-19 10:38 45.800495 -122.513085 329 16111ft 316kts
08-Jan-19 10:39 45.881583 -122.560048 331 16046ft 343kts
08-Jan-19 10:40 45.965152 -122.609041 332 16042ft 358kts
08-Jan-19 10:41 46.056983 -122.658848 333 16003ft 364kts
08-Jan-19 10:42 46.154248 -122.691145 349 15974ft 377kts
08-Jan-19 10:43 46.255995 -122.708643 347 15962ft 377kts
08-Jan-19 10:45 46.356857 -122.725378 354 15964ft 380kts
08-Jan-19 10:46 46.454279 -122.726996 355 15966ft 382kts
08-Jan-19 10:47 46.559643 -122.730696 354 15968ft 383kts
08-Jan-19 10:48 46.663587 -122.734603 354 15969ft 384kts
08-Jan-19 10:49 46.764311 -122.736892 1 15962ft 386kts
08-Jan-19 10:50 46.852293 -122.662225 43 15056ft 392kts
08-Jan-19 10:51 46.928847 -122.571011 34 14062ft 345kts
08-Jan-19 10:52 47.004356 -122.531015 12 12594ft 341kts
08-Jan-19 10:53 47.092413 -122.497479 8 10860ft 337kts
08-Jan-19 10:54 47.174745 -122.482466 6 9992ft 309kts
08-Jan-19 10:55 47.259652 -122.469847 6 9976ft 300kts
08-Jan-19 10:56 47.332476 -122.458222 4 9980ft 282kts
08-Jan-19 10:57 47.413678 -122.454805 359 8177ft 280kts
08-Jan-19 10:58 47.482678 -122.456001 2 6647ft 253kts
08-Jan-19 10:59 47.550241 -122.456659 1 5526ft 244kts
08-Jan-19 11:00 47.611459 -122.460324 0 4178ft 246kts
08-Jan-19 11:01 47.673044 -122.465961 0 3690ft 217kts
08-Jan-19 11:02 47.733122 -122.470342 0 4006ft 224kts
08-Jan-19 11:02 47.773740 -122.441087 79 4014ft 205kts
08-Jan-19 11:03 47.750726 -122.369778 126 4019ft 207kts
08-Jan-19 11:05 47.695844 -122.324179 186 4016ft 223kts
08-Jan-19 11:06 47.636879 -122.312525 168 3729ft 222kts
08-Jan-19 11:06 47.591001 -122.307377 173 2890ft 197kts
08-Jan-19 11:08 47.534244 -122.306982 175 1849ft 159kts
08-Jan-19 11:09 47.492362 -122.307301 177 1015ft 138kts
08-Jan-19 11:09 47.463532 -122.307776 172 481ft 124kts
08-Jan-19 11:10 47.445927 -122.307080 95 440ft 11kts
08-Jan-19 11:12 47.444370 -122.304354 123 440ft 0kts
08-Jan-19 11:12 47.444324 -122.304247 121 440ft 0kts

Navigation Log

Ident Type
Flight plan parsing failed, navigation log unavailable